sensor_id;sensor_type;location;lat;lon;timestamp;P1;durP1;ratioP1;P2;durP2;ratioP2
55202;SDS011;41077;52.956;6.796;2023-01-10T00:00:20;461.83;;;437.25;;
55202;SDS011;41077;52.956;6.796;2023-01-10T00:02:50;487.40;;;461.70;;
55202;SDS011;41077;52.956;6.796;2023-01-10T00:05:16;466.40;;;442.05;;
55202;SDS011;41077;52.956;6.796;2023-01-10T00:07:42;441.10;;;418.75;;
55202;SDS011;41077;52.956;6.796;2023-01-10T00:10:09;436.38;;;413.92;;
55202;SDS011;41077;52.956;6.796;2023-01-10T00:12:35;477.55;;;452.48;;
55202;SDS011;41077;52.956;6.796;2023-01-10T00:15:20;446.35;;;423.20;;
55202;SDS011;41077;52.956;6.796;2023-01-10T00:17:45;477.77;;;451.95;;
55202;SDS011;41077;52.956;6.796;2023-01-10T00:20:11;478.75;;;453.00;;
55202;SDS011;41077;52.956;6.796;2023-01-10T00:22:37;459.85;;;435.63;;
55202;SDS011;41077;52.956;6.796;2023-01-10T00:25:03;445.05;;;422.13;;
55202;SDS011;41077;52.956;6.796;2023-01-10T00:27:29;448.42;;;424.83;;
55202;SDS011;41077;52.956;6.796;2023-01-10T00:29:55;481.30;;;455.98;;
55202;SDS011;41077;52.956;6.796;2023-01-10T00:32:22;478.60;;;452.45;;
55202;SDS011;41077;52.956;6.796;2023-01-10T00:34:47;496.88;;;470.67;;
55202;SDS011;41077;52.956;6.796;2023-01-10T00:37:13;444.58;;;420.70;;
55202;SDS011;41077;52.956;6.796;2023-01-10T00:39:40;476.88;;;451.77;;
55202;SDS011;41077;52.956;6.796;2023-01-10T00:42:06;461.95;;;438.35;;
55202;SDS011;41077;52.956;6.796;2023-01-10T00:44:51;501.75;;;475.50;;
55202;SDS011;41077;52.956;6.796;2023-01-10T00:47:17;425.42;;;403.17;;
55202;SDS011;41077;52.956;6.796;2023-01-10T00:49:42;427.42;;;405.00;;
55202;SDS011;41077;52.956;6.796;2023-01-10T00:52:08;432.00;;;409.33;;
55202;SDS011;41077;52.956;6.796;2023-01-10T00:54:34;429.10;;;407.38;;
55202;SDS011;41077;52.956;6.796;2023-01-10T00:56:59;446.30;;;422.83;;
55202;SDS011;41077;52.956;6.796;2023-01-10T00:59:25;431.60;;;409.20;;
55202;SDS011;41077;52.956;6.796;2023-01-10T01:01:52;450.15;;;426.58;;
55202;SDS011;41077;52.956;6.796;2023-01-10T01:04:18;448.13;;;424.48;;
55202;SDS011;41077;52.956;6.796;2023-01-10T01:06:44;451.58;;;427.73;;
55202;SDS011;41077;52.956;6.796;2023-01-10T01:09:11;454.05;;;430.30;;
55202;SDS011;41077;52.956;6.796;2023-01-10T01:11:37;456.70;;;432.90;;
55202;SDS011;41077;52.956;6.796;2023-01-10T01:14:03;498.50;;;471.88;;
55202;SDS011;41077;52.956;6.796;2023-01-10T01:16:29;384.17;;;364.42;;
55202;SDS011;41077;52.956;6.796;2023-01-10T01:18:55;422.27;;;400.02;;
55202;SDS011;41077;52.956;6.796;2023-01-10T01:21:22;471.25;;;446.13;;
55202;SDS011;41077;52.956;6.796;2023-01-10T01:23:52;334.77;;;316.55;;
55202;SDS011;41077;52.956;6.796;2023-01-10T01:26:21;429.73;;;406.70;;
55202;SDS011;41077;52.956;6.796;2023-01-10T01:28:47;423.35;;;401.30;;
55202;SDS011;41077;52.956;6.796;2023-01-10T01:31:13;475.65;;;449.65;;
55202;SDS011;41077;52.956;6.796;2023-01-10T01:33:39;435.67;;;412.17;;
55202;SDS011;41077;52.956;6.796;2023-01-10T01:36:08;377.58;;;356.75;;
55202;SDS011;41077;52.956;6.796;2023-01-10T01:38:36;479.67;;;453.75;;
55202;SDS011;41077;52.956;6.796;2023-01-10T01:41:03;477.83;;;452.63;;
55202;SDS011;41077;52.956;6.796;2023-01-10T01:46:32;405.50;;;384.42;;
55202;SDS011;41077;52.956;6.796;2023-01-10T01:49:02;454.80;;;430.45;;
55202;SDS011;41077;52.956;6.796;2023-01-10T01:51:30;442.20;;;419.45;;
55202;SDS011;41077;52.956;6.796;2023-01-10T01:54:02;485.35;;;459.48;;
55202;SDS011;41077;52.956;6.796;2023-01-10T01:59:14;477.73;;;452.20;;
55202;SDS011;41077;52.956;6.796;2023-01-10T02:01:46;487.63;;;461.88;;
55202;SDS011;41077;52.956;6.796;2023-01-10T02:04:17;496.08;;;469.27;;
55202;SDS011;41077;52.956;6.796;2023-01-10T02:06:48;502.83;;;475.15;;
55202;SDS011;41077;52.956;6.796;2023-01-10T02:09:20;453.55;;;428.10;;
55202;SDS011;41077;52.956;6.796;2023-01-10T02:11:50;481.13;;;454.52;;
55202;SDS011;41077;52.956;6.796;2023-01-10T02:14:16;514.65;;;486.30;;
55202;SDS011;41077;52.956;6.796;2023-01-10T02:16:44;497.92;;;470.83;;
55202;SDS011;41077;52.956;6.796;2023-01-10T02:19:17;467.80;;;443.02;;
55202;SDS011;41077;52.956;6.796;2023-01-10T02:30:39;301.20;;;285.20;;
55202;SDS011;41077;52.956;6.796;2023-01-10T02:36:30;425.63;;;403.33;;
55202;SDS011;41077;52.956;6.796;2023-01-10T02:39:04;439.10;;;415.17;;
55202;SDS011;41077;52.956;6.796;2023-01-10T02:41:57;490.33;;;463.45;;
55202;SDS011;41077;52.956;6.796;2023-01-10T02:47:12;460.60;;;435.90;;
55202;SDS011;41077;52.956;6.796;2023-01-10T02:49:48;490.30;;;463.85;;
55202;SDS011;41077;52.956;6.796;2023-01-10T02:52:17;484.60;;;458.65;;
55202;SDS011;41077;52.956;6.796;2023-01-10T02:54:52;499.58;;;472.30;;
55202;SDS011;41077;52.956;6.796;2023-01-10T02:57:45;482.90;;;457.30;;
55202;SDS011;41077;52.956;6.796;2023-01-10T03:01:15;435.23;;;411.98;;
55202;SDS011;41077;52.956;6.796;2023-01-10T03:03:46;444.10;;;420.38;;
55202;SDS011;41077;52.956;6.796;2023-01-10T03:06:45;456.48;;;431.35;;
55202;SDS011;41077;52.956;6.796;2023-01-10T03:09:26;510.48;;;483.05;;
55202;SDS011;41077;52.956;6.796;2023-01-10T03:12:01;502.73;;;475.35;;
55202;SDS011;41077;52.956;6.796;2023-01-10T03:14:41;487.80;;;461.88;;
55202;SDS011;41077;52.956;6.796;2023-01-10T03:17:09;360.73;;;340.92;;
55202;SDS011;41077;52.956;6.796;2023-01-10T03:19:39;402.45;;;381.60;;
55202;SDS011;41077;52.956;6.796;2023-01-10T03:22:10;448.17;;;424.15;;
55202;SDS011;41077;52.956;6.796;2023-01-10T03:24:49;473.30;;;447.52;;
55202;SDS011;41077;52.956;6.796;2023-01-10T03:27:19;520.92;;;492.00;;
55202;SDS011;41077;52.956;6.796;2023-01-10T03:30:23;485.60;;;459.15;;
55202;SDS011;41077;52.956;6.796;2023-01-10T03:32:56;437.27;;;414.20;;
55202;SDS011;41077;52.956;6.796;2023-01-10T03:41:21;453.15;;;428.83;;
55202;SDS011;41077;52.956;6.796;2023-01-10T03:47:07;397.30;;;375.10;;
55202;SDS011;41077;52.956;6.796;2023-01-10T03:50:39;474.13;;;448.52;;
55202;SDS011;41077;52.956;6.796;2023-01-10T03:52:49;480.15;;;453.63;;
55202;SDS011;41077;52.956;6.796;2023-01-10T03:55:19;282.20;;;268.02;;
55202;SDS011;41077;52.956;6.796;2023-01-10T03:57:48;506.70;;;479.77;;
55202;SDS011;41077;52.956;6.796;2023-01-10T04:00:14;446.77;;;422.98;;
55202;SDS011;41077;52.956;6.796;2023-01-10T04:02:40;293.60;;;278.08;;
55202;SDS011;41077;52.956;6.796;2023-01-10T04:05:06;504.10;;;476.92;;
55202;SDS011;41077;52.956;6.796;2023-01-10T04:07:32;442.88;;;418.90;;
55202;SDS011;41077;52.956;6.796;2023-01-10T04:09:58;460.63;;;436.55;;
55202;SDS011;41077;52.956;6.796;2023-01-10T04:12:24;446.80;;;423.35;;
55202;SDS011;41077;52.956;6.796;2023-01-10T04:14:50;485.25;;;459.08;;
55202;SDS011;41077;52.956;6.796;2023-01-10T04:17:16;453.70;;;429.73;;
55202;SDS011;41077;52.956;6.796;2023-01-10T04:19:42;483.55;;;457.65;;
55202;SDS011;41077;52.956;6.796;2023-01-10T04:22:09;476.60;;;451.55;;
55202;SDS011;41077;52.956;6.796;2023-01-10T04:24:35;415.60;;;393.55;;
55202;SDS011;41077;52.956;6.796;2023-01-10T04:27:01;494.48;;;468.40;;
55202;SDS011;41077;52.956;6.796;2023-01-10T04:29:27;491.65;;;465.55;;
55202;SDS011;41077;52.956;6.796;2023-01-10T04:31:53;385.13;;;365.02;;
55202;SDS011;41077;52.956;6.796;2023-01-10T04:34:19;440.08;;;417.05;;
55202;SDS011;41077;52.956;6.796;2023-01-10T04:36:46;369.98;;;350.05;;
55202;SDS011;41077;52.956;6.796;2023-01-10T04:39:12;446.80;;;423.52;;
55202;SDS011;41077;52.956;6.796;2023-01-10T04:41:38;384.67;;;365.17;;
55202;SDS011;41077;52.956;6.796;2023-01-10T04:44:04;362.27;;;342.65;;
55202;SDS011;41077;52.956;6.796;2023-01-10T04:46:29;403.38;;;382.50;;
55202;SDS011;41077;52.956;6.796;2023-01-10T04:48:56;404.50;;;383.27;;
55202;SDS011;41077;52.956;6.796;2023-01-10T04:51:23;407.33;;;386.92;;
55202;SDS011;41077;52.956;6.796;2023-01-10T04:53:50;402.00;;;381.70;;
55202;SDS011;41077;52.956;6.796;2023-01-10T04:56:18;320.10;;;303.65;;
55202;SDS011;41077;52.956;6.796;2023-01-10T04:58:44;413.92;;;391.85;;
55202;SDS011;41077;52.956;6.796;2023-01-10T05:01:11;359.98;;;341.73;;
55202;SDS011;41077;52.956;6.796;2023-01-10T05:03:38;399.00;;;378.52;;
55202;SDS011;41077;52.956;6.796;2023-01-10T05:06:05;282.42;;;267.17;;
55202;SDS011;41077;52.956;6.796;2023-01-10T05:08:31;370.70;;;351.65;;
55202;SDS011;41077;52.956;6.796;2023-01-10T05:10:57;437.27;;;412.58;;
55202;SDS011;41077;52.956;6.796;2023-01-10T05:13:23;355.83;;;337.48;;
55202;SDS011;41077;52.956;6.796;2023-01-10T05:15:52;433.63;;;410.40;;
55202;SDS011;41077;52.956;6.796;2023-01-10T05:18:20;379.60;;;359.85;;
55202;SDS011;41077;52.956;6.796;2023-01-10T05:20:46;446.35;;;422.55;;
55202;SDS011;41077;52.956;6.796;2023-01-10T05:23:11;472.15;;;446.20;;
55202;SDS011;41077;52.956;6.796;2023-01-10T05:25:37;419.23;;;397.10;;
55202;SDS011;41077;52.956;6.796;2023-01-10T05:28:03;420.45;;;398.05;;
55202;SDS011;41077;52.956;6.796;2023-01-10T05:30:28;428.42;;;405.70;;
55202;SDS011;41077;52.956;6.796;2023-01-10T05:32:54;498.67;;;471.00;;
55202;SDS011;41077;52.956;6.796;2023-01-10T05:35:20;375.70;;;356.08;;
55202;SDS011;41077;52.956;6.796;2023-01-10T05:37:45;418.48;;;396.40;;
55202;SDS011;41077;52.956;6.796;2023-01-10T05:40:11;419.60;;;397.48;;
55202;SDS011;41077;52.956;6.796;2023-01-10T05:42:37;396.50;;;374.98;;
55202;SDS011;41077;52.956;6.796;2023-01-10T05:45:03;445.20;;;422.02;;
55202;SDS011;41077;52.956;6.796;2023-01-10T05:47:29;442.60;;;413.25;;
55202;SDS011;41077;52.956;6.796;2023-01-10T05:49:55;428.00;;;405.33;;
55202;SDS011;41077;52.956;6.796;2023-01-10T05:52:20;362.95;;;343.42;;
55202;SDS011;41077;52.956;6.796;2023-01-10T05:54:46;407.52;;;385.45;;
55202;SDS011;41077;52.956;6.796;2023-01-10T05:57:12;381.67;;;361.77;;
55202;SDS011;41077;52.956;6.796;2023-01-10T05:59:37;414.95;;;392.35;;
55202;SDS011;41077;52.956;6.796;2023-01-10T06:02:03;470.63;;;445.00;;
55202;SDS011;41077;52.956;6.796;2023-01-10T06:04:29;432.00;;;408.88;;
55202;SDS011;41077;52.956;6.796;2023-01-10T06:06:54;414.80;;;392.45;;
55202;SDS011;41077;52.956;6.796;2023-01-10T06:09:20;360.67;;;341.67;;
55202;SDS011;41077;52.956;6.796;2023-01-10T06:11:46;372.08;;;352.45;;
55202;SDS011;41077;52.956;6.796;2023-01-10T06:14:11;388.10;;;368.20;;
55202;SDS011;41077;52.956;6.796;2023-01-10T06:16:37;447.88;;;423.50;;
55202;SDS011;41077;52.956;6.796;2023-01-10T06:19:03;386.92;;;364.75;;
55202;SDS011;41077;52.956;6.796;2023-01-10T06:21:28;370.27;;;350.38;;
55202;SDS011;41077;52.956;6.796;2023-01-10T06:23:54;392.52;;;371.25;;
55202;SDS011;41077;52.956;6.796;2023-01-10T06:26:20;390.23;;;368.48;;
55202;SDS011;41077;52.956;6.796;2023-01-10T06:28:45;493.23;;;465.73;;
55202;SDS011;41077;52.956;6.796;2023-01-10T06:31:11;393.60;;;372.95;;
55202;SDS011;41077;52.956;6.796;2023-01-10T06:33:38;420.25;;;397.38;;
55202;SDS011;41077;52.956;6.796;2023-01-10T06:36:05;402.23;;;380.92;;
55202;SDS011;41077;52.956;6.796;2023-01-10T06:38:31;421.33;;;398.27;;
55202;SDS011;41077;52.956;6.796;2023-01-10T06:40:57;403.60;;;382.63;;
55202;SDS011;41077;52.956;6.796;2023-01-10T06:43:23;484.27;;;457.70;;
55202;SDS011;41077;52.956;6.796;2023-01-10T06:45:48;440.13;;;415.08;;
55202;SDS011;41077;52.956;6.796;2023-01-10T06:48:14;466.55;;;441.73;;
55202;SDS011;41077;52.956;6.796;2023-01-10T06:50:40;495.70;;;468.30;;
55202;SDS011;41077;52.956;6.796;2023-01-10T06:53:06;425.13;;;402.13;;
55202;SDS011;41077;52.956;6.796;2023-01-10T06:55:31;466.15;;;440.52;;
55202;SDS011;41077;52.956;6.796;2023-01-10T06:57:58;500.08;;;472.40;;
55202;SDS011;41077;52.956;6.796;2023-01-10T07:00:25;399.90;;;378.17;;
55202;SDS011;41077;52.956;6.796;2023-01-10T07:02:52;400.58;;;379.23;;
55202;SDS011;41077;52.956;6.796;2023-01-10T07:05:20;462.65;;;437.08;;
55202;SDS011;41077;52.956;6.796;2023-01-10T07:07:46;442.13;;;417.52;;
55202;SDS011;41077;52.956;6.796;2023-01-10T07:10:11;438.88;;;414.70;;
55202;SDS011;41077;52.956;6.796;2023-01-10T07:12:37;417.75;;;395.60;;
55202;SDS011;41077;52.956;6.796;2023-01-10T07:15:03;487.02;;;458.85;;
55202;SDS011;41077;52.956;6.796;2023-01-10T07:17:29;479.25;;;452.50;;
55202;SDS011;41077;52.956;6.796;2023-01-10T07:19:55;497.20;;;468.75;;
55202;SDS011;41077;52.956;6.796;2023-01-10T07:22:21;408.95;;;386.05;;
55202;SDS011;41077;52.956;6.796;2023-01-10T07:24:47;452.98;;;428.60;;
55202;SDS011;41077;52.956;6.796;2023-01-10T07:27:13;430.00;;;407.48;;
55202;SDS011;41077;52.956;6.796;2023-01-10T07:29:38;477.73;;;450.67;;
55202;SDS011;41077;52.956;6.796;2023-01-10T07:32:04;390.98;;;368.83;;
55202;SDS011;41077;52.956;6.796;2023-01-10T07:34:30;442.45;;;416.65;;
55202;SDS011;41077;52.956;6.796;2023-01-10T07:36:56;461.83;;;436.80;;
55202;SDS011;41077;52.956;6.796;2023-01-10T07:39:21;477.08;;;450.70;;
55202;SDS011;41077;52.956;6.796;2023-01-10T07:41:48;435.33;;;410.85;;
55202;SDS011;41077;52.956;6.796;2023-01-10T07:44:14;417.23;;;395.45;;
55202;SDS011;41077;52.956;6.796;2023-01-10T07:46:40;498.35;;;470.63;;
55202;SDS011;41077;52.956;6.796;2023-01-10T07:49:06;474.67;;;448.02;;
55202;SDS011;41077;52.956;6.796;2023-01-10T07:51:32;335.83;;;317.25;;
55202;SDS011;41077;52.956;6.796;2023-01-10T07:53:57;306.23;;;289.98;;
55202;SDS011;41077;52.956;6.796;2023-01-10T07:56:23;472.55;;;446.38;;
55202;SDS011;41077;52.956;6.796;2023-01-10T07:58:49;417.42;;;395.05;;
55202;SDS011;41077;52.956;6.796;2023-01-10T08:01:15;526.60;;;497.20;;
55202;SDS011;41077;52.956;6.796;2023-01-10T08:03:40;455.27;;;430.40;;
55202;SDS011;41077;52.956;6.796;2023-01-10T08:06:07;518.53;;;488.83;;
55202;SDS011;41077;52.956;6.796;2023-01-10T08:08:37;428.45;;;403.85;;
55202;SDS011;41077;52.956;6.796;2023-01-10T08:11:03;463.35;;;437.92;;
55202;SDS011;41077;52.956;6.796;2023-01-10T08:13:29;440.67;;;416.77;;
55202;SDS011;41077;52.956;6.796;2023-01-10T08:15:56;422.30;;;395.42;;
55202;SDS011;41077;52.956;6.796;2023-01-10T08:18:23;422.35;;;399.85;;
55202;SDS011;41077;52.956;6.796;2023-01-10T08:20:49;445.92;;;421.30;;
55202;SDS011;41077;52.956;6.796;2023-01-10T08:23:17;458.50;;;432.23;;
55202;SDS011;41077;52.956;6.796;2023-01-10T08:25:46;472.63;;;446.38;;
55202;SDS011;41077;52.956;6.796;2023-01-10T08:28:12;405.10;;;381.48;;
55202;SDS011;41077;52.956;6.796;2023-01-10T08:30:38;416.98;;;394.40;;
55202;SDS011;41077;52.956;6.796;2023-01-10T08:33:04;468.15;;;442.00;;
55202;SDS011;41077;52.956;6.796;2023-01-10T08:35:41;428.58;;;405.00;;
55202;SDS011;41077;52.956;6.796;2023-01-10T08:38:08;413.70;;;390.77;;
55202;SDS011;41077;52.956;6.796;2023-01-10T08:40:35;396.88;;;375.70;;
55202;SDS011;41077;52.956;6.796;2023-01-10T08:43:01;482.63;;;456.33;;
55202;SDS011;41077;52.956;6.796;2023-01-10T08:45:29;391.48;;;369.60;;
55202;SDS011;41077;52.956;6.796;2023-01-10T08:47:54;462.50;;;437.08;;
55202;SDS011;41077;52.956;6.796;2023-01-10T08:50:20;387.55;;;365.70;;
55202;SDS011;41077;52.956;6.796;2023-01-10T08:52:46;449.85;;;421.55;;
55202;SDS011;41077;52.956;6.796;2023-01-10T08:55:12;445.17;;;419.00;;
55202;SDS011;41077;52.956;6.796;2023-01-10T08:57:38;516.25;;;487.38;;
55202;SDS011;41077;52.956;6.796;2023-01-10T09:00:04;478.08;;;451.25;;
55202;SDS011;41077;52.956;6.796;2023-01-10T09:02:30;429.73;;;405.63;;
55202;SDS011;41077;52.956;6.796;2023-01-10T09:04:56;511.05;;;481.33;;
55202;SDS011;41077;52.956;6.796;2023-01-10T09:07:21;416.15;;;393.95;;
55202;SDS011;41077;52.956;6.796;2023-01-10T09:09:47;419.20;;;395.38;;
55202;SDS011;41077;52.956;6.796;2023-01-10T09:12:13;382.92;;;362.00;;
55202;SDS011;41077;52.956;6.796;2023-01-10T09:14:57;421.50;;;398.83;;
55202;SDS011;41077;52.956;6.796;2023-01-10T09:17:23;476.73;;;449.77;;
55202;SDS011;41077;52.956;6.796;2023-01-10T09:19:49;410.17;;;387.48;;
55202;SDS011;41077;52.956;6.796;2023-01-10T09:22:14;449.77;;;425.73;;
55202;SDS011;41077;52.956;6.796;2023-01-10T09:24:40;414.15;;;391.00;;
55202;SDS011;41077;52.956;6.796;2023-01-10T09:27:08;512.63;;;483.52;;
55202;SDS011;41077;52.956;6.796;2023-01-10T09:29:35;407.50;;;386.00;;
55202;SDS011;41077;52.956;6.796;2023-01-10T09:32:01;447.42;;;422.98;;
55202;SDS011;41077;52.956;6.796;2023-01-10T09:34:27;499.27;;;471.33;;
55202;SDS011;41077;52.956;6.796;2023-01-10T09:36:52;436.33;;;412.92;;
55202;SDS011;41077;52.956;6.796;2023-01-10T09:39:18;415.90;;;393.50;;
55202;SDS011;41077;52.956;6.796;2023-01-10T09:41:49;391.77;;;370.77;;
55202;SDS011;41077;52.956;6.796;2023-01-10T09:44:35;564.95;;;532.30;;
55202;SDS011;41077;52.956;6.796;2023-01-10T09:47:07;462.60;;;435.13;;
55202;SDS011;41077;52.956;6.796;2023-01-10T09:52:27;473.73;;;448.00;;
55202;SDS011;41077;52.956;6.796;2023-01-10T09:54:57;513.57;;;484.53;;
55202;SDS011;41077;52.956;6.796;2023-01-10T09:57:29;473.42;;;446.20;;
55202;SDS011;41077;52.956;6.796;2023-01-10T09:59:55;445.90;;;419.88;;
55202;SDS011;41077;52.956;6.796;2023-01-10T10:02:35;472.02;;;446.17;;
55202;SDS011;41077;52.956;6.796;2023-01-10T10:07:43;463.75;;;437.75;;
55202;SDS011;41077;52.956;6.796;2023-01-10T10:10:15;548.50;;;517.47;;
55202;SDS011;41077;52.956;6.796;2023-01-10T10:12:54;528.35;;;498.02;;
55202;SDS011;41077;52.956;6.796;2023-01-10T10:23:44;498.33;;;471.75;;
55202;SDS011;41077;52.956;6.796;2023-01-10T10:26:27;478.15;;;452.92;;
55202;SDS011;41077;52.956;6.796;2023-01-10T10:34:38;513.67;;;485.42;;
55202;SDS011;41077;52.956;6.796;2023-01-10T10:37:09;504.65;;;475.75;;
55202;SDS011;41077;52.956;6.796;2023-01-10T10:39:58;451.63;;;426.77;;
55202;SDS011;41077;52.956;6.796;2023-01-10T10:42:28;492.02;;;464.63;;
55202;SDS011;41077;52.956;6.796;2023-01-10T10:45:00;457.38;;;432.88;;
55202;SDS011;41077;52.956;6.796;2023-01-10T10:47:32;466.48;;;440.45;;
55202;SDS011;41077;52.956;6.796;2023-01-10T10:52:55;411.75;;;389.13;;
55202;SDS011;41077;52.956;6.796;2023-01-10T10:55:28;444.25;;;419.98;;
55202;SDS011;41077;52.956;6.796;2023-01-10T10:57:59;464.50;;;439.35;;
55202;SDS011;41077;52.956;6.796;2023-01-10T11:00:26;513.65;;;482.65;;
55202;SDS011;41077;52.956;6.796;2023-01-10T11:05:24;436.52;;;412.13;;
55202;SDS011;41077;52.956;6.796;2023-01-10T11:08:02;470.63;;;444.33;;
55202;SDS011;41077;52.956;6.796;2023-01-10T11:10:38;471.15;;;443.52;;
55202;SDS011;41077;52.956;6.796;2023-01-10T11:18:15;426.23;;;403.52;;
55202;SDS011;41077;52.956;6.796;2023-01-10T11:20:55;443.95;;;420.00;;
55202;SDS011;41077;52.956;6.796;2023-01-10T11:26:28;359.38;;;340.95;;
55202;SDS011;41077;52.956;6.796;2023-01-10T11:29:29;359.10;;;339.95;;
55202;SDS011;41077;52.956;6.796;2023-01-10T11:31:52;483.17;;;443.45;;
55202;SDS011;41077;52.956;6.796;2023-01-10T11:34:24;1999.90;;;999.90;;
55202;SDS011;41077;52.956;6.796;2023-01-10T11:36:56;1999.90;;;999.90;;
55202;SDS011;41077;52.956;6.796;2023-01-10T11:39:22;1999.90;;;999.90;;
55202;SDS011;41077;52.956;6.796;2023-01-10T11:41:48;1999.90;;;999.90;;
55202;SDS011;41077;52.956;6.796;2023-01-10T11:44:19;1999.90;;;999.90;;
55202;SDS011;41077;52.956;6.796;2023-01-10T11:46:48;1999.90;;;999.90;;
55202;SDS011;41077;52.956;6.796;2023-01-10T11:49:22;1999.90;;;999.90;;
55202;SDS011;41077;52.956;6.796;2023-01-10T11:51:54;1999.90;;;999.90;;
55202;SDS011;41077;52.956;6.796;2023-01-10T11:54:26;1999.90;;;999.90;;
55202;SDS011;41077;52.956;6.796;2023-01-10T11:56:55;1999.90;;;999.90;;
55202;SDS011;41077;52.956;6.796;2023-01-10T11:59:57;1999.90;;;999.90;;
55202;SDS011;41077;52.956;6.796;2023-01-10T12:02:39;1999.90;;;999.90;;
55202;SDS011;41077;52.956;6.796;2023-01-10T12:05:08;1999.90;;;999.90;;
55202;SDS011;41077;52.956;6.796;2023-01-10T12:07:57;1999.90;;;999.90;;
55202;SDS011;41077;52.956;6.796;2023-01-10T12:10:26;1999.90;;;999.90;;
55202;SDS011;41077;52.956;6.796;2023-01-10T12:12:57;1999.90;;;999.90;;
55202;SDS011;41077;52.956;6.796;2023-01-10T12:15:26;1999.90;;;999.90;;
55202;SDS011;41077;52.956;6.796;2023-01-10T12:17:54;1999.90;;;999.90;;
55202;SDS011;41077;52.956;6.796;2023-01-10T12:20:22;1999.90;;;999.90;;
55202;SDS011;41077;52.956;6.796;2023-01-10T12:22:54;1999.90;;;999.90;;
55202;SDS011;41077;52.956;6.796;2023-01-10T12:25:26;1999.90;;;999.90;;
55202;SDS011;41077;52.956;6.796;2023-01-10T12:27:57;1999.90;;;999.90;;
55202;SDS011;41077;52.956;6.796;2023-01-10T12:30:29;1999.90;;;999.90;;
55202;SDS011;41077;52.956;6.796;2023-01-10T12:32:56;1999.90;;;999.90;;
55202;SDS011;41077;52.956;6.796;2023-01-10T12:35:38;1999.90;;;999.90;;
55202;SDS011;41077;52.956;6.796;2023-01-10T12:40:50;1999.90;;;999.90;;
55202;SDS011;41077;52.956;6.796;2023-01-10T12:43:29;1999.90;;;999.90;;
55202;SDS011;41077;52.956;6.796;2023-01-10T12:46:23;1999.90;;;999.90;;
55202;SDS011;41077;52.956;6.796;2023-01-10T12:49:05;1999.90;;;999.90;;
55202;SDS011;41077;52.956;6.796;2023-01-10T12:51:37;1999.90;;;999.90;;
55202;SDS011;41077;52.956;6.796;2023-01-10T12:54:07;1999.90;;;999.90;;
55202;SDS011;41077;52.956;6.796;2023-01-10T12:56:39;1999.90;;;999.90;;
55202;SDS011;41077;52.956;6.796;2023-01-10T13:01:49;1999.90;;;999.90;;
55202;SDS011;41077;52.956;6.796;2023-01-10T13:04:19;1999.90;;;999.90;;
55202;SDS011;41077;52.956;6.796;2023-01-10T13:06:47;1999.90;;;999.90;;
55202;SDS011;41077;52.956;6.796;2023-01-10T13:09:16;1999.90;;;999.90;;
55202;SDS011;41077;52.956;6.796;2023-01-10T13:12:05;1999.90;;;999.90;;
55202;SDS011;41077;52.956;6.796;2023-01-10T13:14:53;1999.90;;;999.90;;
55202;SDS011;41077;52.956;6.796;2023-01-10T13:22:45;1999.90;;;999.90;;
55202;SDS011;41077;52.956;6.796;2023-01-10T13:25:26;1999.90;;;999.90;;
55202;SDS011;41077;52.956;6.796;2023-01-10T13:30:43;1999.90;;;999.90;;
55202;SDS011;41077;52.956;6.796;2023-01-10T13:35:45;1999.90;;;999.90;;
55202;SDS011;41077;52.956;6.796;2023-01-10T13:38:20;1999.90;;;999.90;;
55202;SDS011;41077;52.956;6.796;2023-01-10T13:40:57;1999.90;;;999.90;;
55202;SDS011;41077;52.956;6.796;2023-01-10T13:51:24;1999.90;;;999.90;;
55202;SDS011;41077;52.956;6.796;2023-01-10T14:02:23;1999.90;;;999.90;;
55202;SDS011;41077;52.956;6.796;2023-01-10T14:04:53;1999.90;;;999.90;;
55202;SDS011;41077;52.956;6.796;2023-01-10T14:07:24;1999.90;;;999.90;;
55202;SDS011;41077;52.956;6.796;2023-01-10T14:10:06;1999.90;;;999.90;;
55202;SDS011;41077;52.956;6.796;2023-01-10T14:15:24;1999.90;;;999.90;;
55202;SDS011;41077;52.956;6.796;2023-01-10T14:21:00;1999.90;;;999.90;;
55202;SDS011;41077;52.956;6.796;2023-01-10T14:23:30;1999.90;;;999.90;;
55202;SDS011;41077;52.956;6.796;2023-01-10T14:26:01;1999.90;;;999.90;;
55202;SDS011;41077;52.956;6.796;2023-01-10T14:28:28;1999.90;;;999.90;;
55202;SDS011;41077;52.956;6.796;2023-01-10T14:31:41;1999.90;;;999.90;;
55202;SDS011;41077;52.956;6.796;2023-01-10T14:33:47;1999.90;;;999.90;;
55202;SDS011;41077;52.956;6.796;2023-01-10T14:36:24;1999.90;;;999.90;;
55202;SDS011;41077;52.956;6.796;2023-01-10T14:38:57;1999.90;;;999.90;;
55202;SDS011;41077;52.956;6.796;2023-01-10T14:41:31;1999.90;;;999.90;;
55202;SDS011;41077;52.956;6.796;2023-01-10T14:44:05;1999.90;;;999.90;;
55202;SDS011;41077;52.956;6.796;2023-01-10T14:46:41;1999.90;;;999.90;;
55202;SDS011;41077;52.956;6.796;2023-01-10T14:49:29;1999.90;;;999.90;;
55202;SDS011;41077;52.956;6.796;2023-01-10T14:54:43;1999.90;;;999.90;;
55202;SDS011;41077;52.956;6.796;2023-01-10T14:57:27;1999.90;;;999.90;;
55202;SDS011;41077;52.956;6.796;2023-01-10T15:00:00;1999.90;;;999.90;;
55202;SDS011;41077;52.956;6.796;2023-01-10T15:02:29;1999.90;;;999.90;;
55202;SDS011;41077;52.956;6.796;2023-01-10T15:07:36;1999.90;;;999.90;;
55202;SDS011;41077;52.956;6.796;2023-01-10T15:10:14;1999.90;;;999.90;;
55202;SDS011;41077;52.956;6.796;2023-01-10T15:12:50;1999.90;;;999.90;;
55202;SDS011;41077;52.956;6.796;2023-01-10T15:15:18;1999.90;;;999.90;;
55202;SDS011;41077;52.956;6.796;2023-01-10T15:17:47;1999.90;;;999.90;;
55202;SDS011;41077;52.956;6.796;2023-01-10T15:20:14;1999.90;;;999.90;;
55202;SDS011;41077;52.956;6.796;2023-01-10T15:22:41;1999.90;;;999.90;;
55202;SDS011;41077;52.956;6.796;2023-01-10T15:27:49;1999.90;;;999.90;;
55202;SDS011;41077;52.956;6.796;2023-01-10T15:30:23;1999.90;;;999.90;;
55202;SDS011;41077;52.956;6.796;2023-01-10T15:32:55;1999.90;;;999.90;;
55202;SDS011;41077;52.956;6.796;2023-01-10T15:35:27;1999.90;;;999.90;;
55202;SDS011;41077;52.956;6.796;2023-01-10T15:37:55;1999.90;;;999.90;;
55202;SDS011;41077;52.956;6.796;2023-01-10T15:40:23;1999.90;;;999.90;;
55202;SDS011;41077;52.956;6.796;2023-01-10T15:45:41;1999.90;;;999.90;;
55202;SDS011;41077;52.956;6.796;2023-01-10T15:48:42;1999.90;;;999.90;;
55202;SDS011;41077;52.956;6.796;2023-01-10T15:51:25;1999.90;;;999.90;;
55202;SDS011;41077;52.956;6.796;2023-01-10T15:54:01;1999.90;;;999.90;;
55202;SDS011;41077;52.956;6.796;2023-01-10T15:59:17;1999.90;;;999.90;;
55202;SDS011;41077;52.956;6.796;2023-01-10T16:04:41;1999.90;;;999.90;;
55202;SDS011;41077;52.956;6.796;2023-01-10T16:07:14;1999.90;;;999.90;;